sensor_id;sensor_type;location;lat;lon;timestamp;P1;durP1;ratioP1;P2;durP2;ratioP2
1613;SDS011;800;48.824;9.346;2023-05-10T00:01:05;2.03;;;1.83;;
1613;SDS011;800;48.824;9.346;2023-05-10T00:03:31;2.60;;;1.67;;
1613;SDS011;800;48.824;9.346;2023-05-10T00:05:57;1.30;;;1.20;;
1613;SDS011;800;48.824;9.346;2023-05-10T00:08:23;2.47;;;1.73;;
1613;SDS011;800;48.824;9.346;2023-05-10T00:10:48;2.70;;;1.90;;
1613;SDS011;800;48.824;9.346;2023-05-10T00:13:14;3.70;;;1.57;;
1613;SDS011;800;48.824;9.346;2023-05-10T00:15:40;1.60;;;1.30;;
1613;SDS011;800;48.824;9.346;2023-05-10T00:18:05;1.10;;;1.00;;
1613;SDS011;800;48.824;9.346;2023-05-10T00:20:31;0.97;;;0.90;;
1613;SDS011;800;48.824;9.346;2023-05-10T00:22:56;0.87;;;0.80;;
1613;SDS011;800;48.824;9.346;2023-05-10T00:25:22;0.80;;;0.70;;
1613;SDS011;800;48.824;9.346;2023-05-10T00:27:47;0.80;;;0.80;;
1613;SDS011;800;48.824;9.346;2023-05-10T00:30:13;1.33;;;0.80;;
1613;SDS011;800;48.824;9.346;2023-05-10T00:32:39;0.70;;;0.70;;
1613;SDS011;800;48.824;9.346;2023-05-10T00:35:04;0.70;;;0.70;;
1613;SDS011;800;48.824;9.346;2023-05-10T00:37:30;0.87;;;0.50;;
1613;SDS011;800;48.824;9.346;2023-05-10T00:39:56;0.57;;;0.57;;
1613;SDS011;800;48.824;9.346;2023-05-10T00:42:21;1.67;;;0.60;;
1613;SDS011;800;48.824;9.346;2023-05-10T00:44:47;0.87;;;0.60;;
1613;SDS011;800;48.824;9.346;2023-05-10T00:47:13;0.60;;;0.60;;
1613;SDS011;800;48.824;9.346;2023-05-10T00:49:38;1.37;;;0.77;;
1613;SDS011;800;48.824;9.346;2023-05-10T00:52:05;0.80;;;0.70;;
1613;SDS011;800;48.824;9.346;2023-05-10T00:54:31;0.60;;;0.60;;
1613;SDS011;800;48.824;9.346;2023-05-10T00:56:57;2.33;;;0.60;;
1613;SDS011;800;48.824;9.346;2023-05-10T00:59:23;0.50;;;0.50;;
1613;SDS011;800;48.824;9.346;2023-05-10T01:01:49;0.60;;;0.60;;
1613;SDS011;800;48.824;9.346;2023-05-10T01:04:16;0.60;;;0.60;;
1613;SDS011;800;48.824;9.346;2023-05-10T01:06:42;1.10;;;0.70;;
1613;SDS011;800;48.824;9.346;2023-05-10T01:09:08;2.97;;;0.60;;
1613;SDS011;800;48.824;9.346;2023-05-10T01:11:37;0.50;;;0.50;;
1613;SDS011;800;48.824;9.346;2023-05-10T01:14:03;0.50;;;0.50;;
1613;SDS011;800;48.824;9.346;2023-05-10T01:16:31;2.83;;;0.50;;
1613;SDS011;800;48.824;9.346;2023-05-10T01:19:01;0.50;;;0.50;;
1613;SDS011;800;48.824;9.346;2023-05-10T01:21:42;0.50;;;0.50;;
1613;SDS011;800;48.824;9.346;2023-05-10T01:24:31;0.60;;;0.50;;
1613;SDS011;800;48.824;9.346;2023-05-10T01:28:21;0.57;;;0.57;;
1613;SDS011;800;48.824;9.346;2023-05-10T01:33:35;0.60;;;0.57;;
1613;SDS011;800;48.824;9.346;2023-05-10T01:39:04;0.60;;;0.60;;
1613;SDS011;800;48.824;9.346;2023-05-10T01:41:40;0.60;;;0.60;;
1613;SDS011;800;48.824;9.346;2023-05-10T01:46:57;0.80;;;0.80;;
1613;SDS011;800;48.824;9.346;2023-05-10T01:49:45;0.63;;;0.63;;
1613;SDS011;800;48.824;9.346;2023-05-10T01:52:16;0.70;;;0.70;;
1613;SDS011;800;48.824;9.346;2023-05-10T01:54:45;0.70;;;0.70;;
1613;SDS011;800;48.824;9.346;2023-05-10T01:57:18;1.33;;;0.80;;
1613;SDS011;800;48.824;9.346;2023-05-10T01:59:47;0.60;;;0.60;;
1613;SDS011;800;48.824;9.346;2023-05-10T02:02:15;2.60;;;1.00;;
1613;SDS011;800;48.824;9.346;2023-05-10T02:04:45;0.80;;;0.80;;
1613;SDS011;800;48.824;9.346;2023-05-10T02:07:12;1.00;;;0.80;;
1613;SDS011;800;48.824;9.346;2023-05-10T02:09:39;0.70;;;0.70;;
1613;SDS011;800;48.824;9.346;2023-05-10T02:12:07;2.53;;;0.80;;
1613;SDS011;800;48.824;9.346;2023-05-10T02:14:34;0.80;;;0.80;;
1613;SDS011;800;48.824;9.346;2023-05-10T02:17:01;0.70;;;0.70;;
1613;SDS011;800;48.824;9.346;2023-05-10T02:19:28;0.73;;;0.73;;
1613;SDS011;800;48.824;9.346;2023-05-10T02:21:56;0.80;;;0.80;;
1613;SDS011;800;48.824;9.346;2023-05-10T02:24:23;1.33;;;0.63;;
1613;SDS011;800;48.824;9.346;2023-05-10T02:26:50;0.90;;;0.73;;
1613;SDS011;800;48.824;9.346;2023-05-10T02:29:18;0.70;;;0.70;;
1613;SDS011;800;48.824;9.346;2023-05-10T02:31:45;1.17;;;0.90;;
1613;SDS011;800;48.824;9.346;2023-05-10T02:34:11;0.73;;;0.73;;
1613;SDS011;800;48.824;9.346;2023-05-10T02:36:38;2.90;;;0.70;;
1613;SDS011;800;48.824;9.346;2023-05-10T02:39:05;0.60;;;0.60;;
1613;SDS011;800;48.824;9.346;2023-05-10T02:41:34;0.70;;;0.70;;
1613;SDS011;800;48.824;9.346;2023-05-10T02:44:01;1.53;;;1.00;;
1613;SDS011;800;48.824;9.346;2023-05-10T02:46:28;0.77;;;0.73;;
1613;SDS011;800;48.824;9.346;2023-05-10T02:48:54;0.70;;;0.70;;
1613;SDS011;800;48.824;9.346;2023-05-10T02:51:20;0.77;;;0.77;;
1613;SDS011;800;48.824;9.346;2023-05-10T02:53:48;0.87;;;0.80;;
1613;SDS011;800;48.824;9.346;2023-05-10T02:56:20;1.20;;;0.80;;
1613;SDS011;800;48.824;9.346;2023-05-10T02:58:50;0.70;;;0.70;;
1613;SDS011;800;48.824;9.346;2023-05-10T03:01:17;1.40;;;0.70;;
1613;SDS011;800;48.824;9.346;2023-05-10T03:03:42;0.77;;;0.73;;
1613;SDS011;800;48.824;9.346;2023-05-10T03:06:08;2.40;;;0.87;;
1613;SDS011;800;48.824;9.346;2023-05-10T03:08:34;1.17;;;1.00;;
1613;SDS011;800;48.824;9.346;2023-05-10T03:16:46;14.03;;;1.87;;
1613;SDS011;800;48.824;9.346;2023-05-10T03:19:34;1.60;;;1.17;;
1613;SDS011;800;48.824;9.346;2023-05-10T03:22:09;1.00;;;1.00;;
1613;SDS011;800;48.824;9.346;2023-05-10T03:24:38;6.80;;;1.50;;
1613;SDS011;800;48.824;9.346;2023-05-10T03:27:06;1.17;;;1.07;;
1613;SDS011;800;48.824;9.346;2023-05-10T03:29:33;1.47;;;1.13;;
1613;SDS011;800;48.824;9.346;2023-05-10T03:31:59;1.30;;;1.20;;
1613;SDS011;800;48.824;9.346;2023-05-10T03:34:25;1.43;;;1.30;;
1613;SDS011;800;48.824;9.346;2023-05-10T03:36:51;1.33;;;1.23;;
1613;SDS011;800;48.824;9.346;2023-05-10T03:39:17;1.37;;;1.27;;
1613;SDS011;800;48.824;9.346;2023-05-10T03:41:42;2.10;;;1.20;;
1613;SDS011;800;48.824;9.346;2023-05-10T03:44:08;1.20;;;1.10;;
1613;SDS011;800;48.824;9.346;2023-05-10T03:46:33;1.40;;;1.30;;
1613;SDS011;800;48.824;9.346;2023-05-10T03:48:59;1.90;;;1.30;;
1613;SDS011;800;48.824;9.346;2023-05-10T03:51:24;1.27;;;1.17;;
1613;SDS011;800;48.824;9.346;2023-05-10T03:53:53;1.50;;;1.40;;
1613;SDS011;800;48.824;9.346;2023-05-10T03:56:19;1.17;;;1.07;;
1613;SDS011;800;48.824;9.346;2023-05-10T03:58:45;1.67;;;1.57;;
1613;SDS011;800;48.824;9.346;2023-05-10T04:01:11;0.90;;;0.90;;
1613;SDS011;800;48.824;9.346;2023-05-10T04:03:37;1.43;;;1.33;;
1613;SDS011;800;48.824;9.346;2023-05-10T04:06:03;1.20;;;1.10;;
1613;SDS011;800;48.824;9.346;2023-05-10T04:08:29;1.13;;;0.97;;
1613;SDS011;800;48.824;9.346;2023-05-10T04:11:04;1.40;;;1.30;;
1613;SDS011;800;48.824;9.346;2023-05-10T04:13:32;3.37;;;1.27;;
1613;SDS011;800;48.824;9.346;2023-05-10T04:15:58;1.00;;;0.90;;
1613;SDS011;800;48.824;9.346;2023-05-10T04:18:24;1.97;;;1.10;;
1613;SDS011;800;48.824;9.346;2023-05-10T04:20:49;1.47;;;1.37;;
1613;SDS011;800;48.824;9.346;2023-05-10T04:23:15;2.60;;;1.00;;
1613;SDS011;800;48.824;9.346;2023-05-10T04:25:41;1.43;;;1.17;;
1613;SDS011;800;48.824;9.346;2023-05-10T04:28:07;1.37;;;1.07;;
1613;SDS011;800;48.824;9.346;2023-05-10T04:30:33;1.53;;;1.40;;
1613;SDS011;800;48.824;9.346;2023-05-10T04:32:59;1.50;;;1.30;;
1613;SDS011;800;48.824;9.346;2023-05-10T04:35:24;2.63;;;1.20;;
1613;SDS011;800;48.824;9.346;2023-05-10T04:37:51;1.40;;;1.30;;
1613;SDS011;800;48.824;9.346;2023-05-10T04:40:16;1.90;;;1.50;;
1613;SDS011;800;48.824;9.346;2023-05-10T04:42:42;1.63;;;1.27;;
1613;SDS011;800;48.824;9.346;2023-05-10T04:45:09;1.00;;;1.00;;
1613;SDS011;800;48.824;9.346;2023-05-10T04:47:35;1.77;;;1.20;;
1613;SDS011;800;48.824;9.346;2023-05-10T04:50:01;1.67;;;1.50;;
1613;SDS011;800;48.824;9.346;2023-05-10T04:52:28;1.53;;;1.43;;
1613;SDS011;800;48.824;9.346;2023-05-10T04:54:53;1.80;;;1.70;;
1613;SDS011;800;48.824;9.346;2023-05-10T04:57:19;1.60;;;1.50;;
1613;SDS011;800;48.824;9.346;2023-05-10T04:59:45;1.67;;;1.57;;
1613;SDS011;800;48.824;9.346;2023-05-10T05:02:10;2.97;;;2.17;;
1613;SDS011;800;48.824;9.346;2023-05-10T05:04:36;2.30;;;2.00;;
1613;SDS011;800;48.824;9.346;2023-05-10T05:07:01;2.10;;;1.30;;
1613;SDS011;800;48.824;9.346;2023-05-10T05:09:27;2.63;;;1.50;;
1613;SDS011;800;48.824;9.346;2023-05-10T05:11:53;2.73;;;1.30;;
1613;SDS011;800;48.824;9.346;2023-05-10T05:14:18;1.97;;;1.27;;
1613;SDS011;800;48.824;9.346;2023-05-10T05:16:45;1.70;;;1.30;;
1613;SDS011;800;48.824;9.346;2023-05-10T05:19:11;2.17;;;1.40;;
1613;SDS011;800;48.824;9.346;2023-05-10T05:21:37;5.00;;;1.30;;
1613;SDS011;800;48.824;9.346;2023-05-10T05:24:03;5.87;;;1.40;;
1613;SDS011;800;48.824;9.346;2023-05-10T05:26:29;1.43;;;1.33;;
1613;SDS011;800;48.824;9.346;2023-05-10T05:28:54;2.87;;;1.50;;
1613;SDS011;800;48.824;9.346;2023-05-10T05:31:20;2.40;;;1.80;;
1613;SDS011;800;48.824;9.346;2023-05-10T05:33:46;1.53;;;1.43;;
1613;SDS011;800;48.824;9.346;2023-05-10T05:36:11;1.80;;;1.33;;
1613;SDS011;800;48.824;9.346;2023-05-10T05:38:37;3.80;;;1.70;;
1613;SDS011;800;48.824;9.346;2023-05-10T05:41:02;1.67;;;1.57;;
1613;SDS011;800;48.824;9.346;2023-05-10T05:43:28;1.87;;;1.60;;
1613;SDS011;800;48.824;9.346;2023-05-10T05:45:53;1.60;;;1.50;;
1613;SDS011;800;48.824;9.346;2023-05-10T05:48:20;2.33;;;1.90;;
1613;SDS011;800;48.824;9.346;2023-05-10T05:50:46;3.90;;;1.67;;
1613;SDS011;800;48.824;9.346;2023-05-10T05:53:12;2.87;;;2.00;;
1613;SDS011;800;48.824;9.346;2023-05-10T05:55:37;1.67;;;1.57;;
1613;SDS011;800;48.824;9.346;2023-05-10T05:58:03;6.47;;;1.53;;
1613;SDS011;800;48.824;9.346;2023-05-10T06:00:29;1.60;;;1.50;;
1613;SDS011;800;48.824;9.346;2023-05-10T06:02:54;3.33;;;1.20;;
1613;SDS011;800;48.824;9.346;2023-05-10T06:05:20;2.00;;;1.50;;
1613;SDS011;800;48.824;9.346;2023-05-10T06:07:45;3.27;;;1.40;;
1613;SDS011;800;48.824;9.346;2023-05-10T06:10:11;2.43;;;1.30;;
1613;SDS011;800;48.824;9.346;2023-05-10T06:12:37;5.03;;;2.13;;
1613;SDS011;800;48.824;9.346;2023-05-10T06:15:03;6.00;;;1.77;;
1613;SDS011;800;48.824;9.346;2023-05-10T06:17:28;2.70;;;1.50;;
1613;SDS011;800;48.824;9.346;2023-05-10T06:19:55;1.73;;;1.63;;
1613;SDS011;800;48.824;9.346;2023-05-10T06:22:21;1.50;;;1.40;;
1613;SDS011;800;48.824;9.346;2023-05-10T06:24:49;2.20;;;1.70;;
1613;SDS011;800;48.824;9.346;2023-05-10T06:27:15;3.53;;;1.70;;
1613;SDS011;800;48.824;9.346;2023-05-10T06:29:41;1.50;;;1.40;;
1613;SDS011;800;48.824;9.346;2023-05-10T06:32:06;2.07;;;1.70;;
1613;SDS011;800;48.824;9.346;2023-05-10T06:34:32;1.97;;;1.53;;
1613;SDS011;800;48.824;9.346;2023-05-10T06:36:57;1.63;;;1.50;;
1613;SDS011;800;48.824;9.346;2023-05-10T06:39:23;3.20;;;1.60;;
1613;SDS011;800;48.824;9.346;2023-05-10T06:41:49;2.30;;;1.50;;
1613;SDS011;800;48.824;9.346;2023-05-10T06:44:14;3.00;;;1.60;;
1613;SDS011;800;48.824;9.346;2023-05-10T06:46:40;1.90;;;1.30;;
1613;SDS011;800;48.824;9.346;2023-05-10T06:49:06;2.40;;;2.07;;
1613;SDS011;800;48.824;9.346;2023-05-10T06:51:32;1.73;;;1.63;;
1613;SDS011;800;48.824;9.346;2023-05-10T06:53:57;2.20;;;1.40;;
1613;SDS011;800;48.824;9.346;2023-05-10T06:56:23;2.63;;;1.57;;
1613;SDS011;800;48.824;9.346;2023-05-10T06:58:48;1.47;;;1.23;;
1613;SDS011;800;48.824;9.346;2023-05-10T07:01:14;1.33;;;1.20;;
1613;SDS011;800;48.824;9.346;2023-05-10T07:03:40;1.83;;;1.53;;
1613;SDS011;800;48.824;9.346;2023-05-10T07:06:05;2.40;;;1.23;;
1613;SDS011;800;48.824;9.346;2023-05-10T07:08:32;1.70;;;1.60;;
1613;SDS011;800;48.824;9.346;2023-05-10T07:11:04;1.57;;;1.47;;
1613;SDS011;800;48.824;9.346;2023-05-10T07:13:35;1.37;;;1.27;;
1613;SDS011;800;48.824;9.346;2023-05-10T07:16:01;1.30;;;1.20;;
1613;SDS011;800;48.824;9.346;2023-05-10T07:18:27;2.30;;;1.50;;
1613;SDS011;800;48.824;9.346;2023-05-10T07:20:53;1.57;;;1.47;;
1613;SDS011;800;48.824;9.346;2023-05-10T07:23:19;1.50;;;1.40;;
1613;SDS011;800;48.824;9.346;2023-05-10T07:25:45;4.17;;;1.43;;
1613;SDS011;800;48.824;9.346;2023-05-10T07:28:14;2.60;;;1.63;;
1613;SDS011;800;48.824;9.346;2023-05-10T07:30:41;2.53;;;1.40;;
1613;SDS011;800;48.824;9.346;2023-05-10T07:33:08;1.57;;;1.47;;
1613;SDS011;800;48.824;9.346;2023-05-10T07:35:34;1.10;;;1.00;;
1613;SDS011;800;48.824;9.346;2023-05-10T07:38:00;1.20;;;1.20;;
1613;SDS011;800;48.824;9.346;2023-05-10T07:40:26;2.37;;;1.40;;
1613;SDS011;800;48.824;9.346;2023-05-10T07:42:51;1.40;;;1.30;;
1613;SDS011;800;48.824;9.346;2023-05-10T07:45:17;1.67;;;1.10;;
1613;SDS011;800;48.824;9.346;2023-05-10T07:47:43;1.10;;;1.00;;
1613;SDS011;800;48.824;9.346;2023-05-10T07:50:09;1.37;;;1.27;;
1613;SDS011;800;48.824;9.346;2023-05-10T07:52:34;1.37;;;1.27;;
1613;SDS011;800;48.824;9.346;2023-05-10T07:55:00;1.40;;;1.30;;
1613;SDS011;800;48.824;9.346;2023-05-10T07:57:25;3.10;;;1.57;;
1613;SDS011;800;48.824;9.346;2023-05-10T07:59:51;2.60;;;1.40;;
1613;SDS011;800;48.824;9.346;2023-05-10T08:02:16;1.37;;;1.20;;
1613;SDS011;800;48.824;9.346;2023-05-10T08:04:42;1.67;;;1.57;;
1613;SDS011;800;48.824;9.346;2023-05-10T08:07:08;1.70;;;1.60;;
1613;SDS011;800;48.824;9.346;2023-05-10T08:09:33;2.93;;;1.57;;
1613;SDS011;800;48.824;9.346;2023-05-10T08:11:59;1.83;;;1.30;;
1613;SDS011;800;48.824;9.346;2023-05-10T08:14:25;2.00;;;1.10;;
1613;SDS011;800;48.824;9.346;2023-05-10T08:16:50;1.60;;;1.50;;
1613;SDS011;800;48.824;9.346;2023-05-10T08:19:16;2.37;;;1.30;;
1613;SDS011;800;48.824;9.346;2023-05-10T08:21:44;2.63;;;1.20;;
1613;SDS011;800;48.824;9.346;2023-05-10T08:24:10;1.20;;;1.10;;
1613;SDS011;800;48.824;9.346;2023-05-10T08:26:36;1.67;;;1.23;;
1613;SDS011;800;48.824;9.346;2023-05-10T08:29:02;2.27;;;1.20;;
1613;SDS011;800;48.824;9.346;2023-05-10T08:31:27;1.10;;;1.00;;
1613;SDS011;800;48.824;9.346;2023-05-10T08:33:53;7.23;;;1.03;;
1613;SDS011;800;48.824;9.346;2023-05-10T08:36:18;1.30;;;1.20;;
1613;SDS011;800;48.824;9.346;2023-05-10T08:38:46;2.67;;;1.13;;
1613;SDS011;800;48.824;9.346;2023-05-10T08:41:14;1.37;;;1.17;;
1613;SDS011;800;48.824;9.346;2023-05-10T08:43:40;2.30;;;1.00;;
1613;SDS011;800;48.824;9.346;2023-05-10T08:46:11;1.43;;;1.00;;
1613;SDS011;800;48.824;9.346;2023-05-10T08:48:46;1.47;;;0.90;;
1613;SDS011;800;48.824;9.346;2023-05-10T08:51:14;1.30;;;1.00;;
1613;SDS011;800;48.824;9.346;2023-05-10T08:53:43;1.30;;;1.10;;
1613;SDS011;800;48.824;9.346;2023-05-10T08:56:10;1.80;;;0.80;;
1613;SDS011;800;48.824;9.346;2023-05-10T08:58:36;1.77;;;1.10;;
1613;SDS011;800;48.824;9.346;2023-05-10T09:01:02;1.17;;;0.80;;
1613;SDS011;800;48.824;9.346;2023-05-10T09:03:28;1.10;;;1.00;;
1613;SDS011;800;48.824;9.346;2023-05-10T09:05:55;1.50;;;0.83;;
1613;SDS011;800;48.824;9.346;2023-05-10T09:08:20;0.83;;;0.83;;
1613;SDS011;800;48.824;9.346;2023-05-10T09:10:50;1.20;;;1.10;;
1613;SDS011;800;48.824;9.346;2023-05-10T09:13:16;0.80;;;0.80;;
1613;SDS011;800;48.824;9.346;2023-05-10T09:15:44;3.70;;;0.90;;
1613;SDS011;800;48.824;9.346;2023-05-10T09:18:14;0.67;;;0.67;;
1613;SDS011;800;48.824;9.346;2023-05-10T09:20:40;0.70;;;0.70;;
1613;SDS011;800;48.824;9.346;2023-05-10T09:23:06;0.67;;;0.67;;
1613;SDS011;800;48.824;9.346;2023-05-10T09:25:32;1.17;;;0.73;;
1613;SDS011;800;48.824;9.346;2023-05-10T09:28:00;1.10;;;0.77;;
1613;SDS011;800;48.824;9.346;2023-05-10T09:30:27;0.80;;;0.80;;
1613;SDS011;800;48.824;9.346;2023-05-10T09:32:57;0.80;;;0.80;;
1613;SDS011;800;48.824;9.346;2023-05-10T09:35:24;1.00;;;0.80;;
1613;SDS011;800;48.824;9.346;2023-05-10T09:37:52;1.33;;;1.10;;
1613;SDS011;800;48.824;9.346;2023-05-10T09:40:19;0.77;;;0.70;;
1613;SDS011;800;48.824;9.346;2023-05-10T09:45:20;0.93;;;0.77;;
1613;SDS011;800;48.824;9.346;2023-05-10T09:47:46;0.70;;;0.70;;
1613;SDS011;800;48.824;9.346;2023-05-10T09:50:12;1.27;;;0.73;;
1613;SDS011;800;48.824;9.346;2023-05-10T09:52:47;3.33;;;0.93;;
1613;SDS011;800;48.824;9.346;2023-05-10T09:55:19;0.90;;;0.70;;
1613;SDS011;800;48.824;9.346;2023-05-10T09:57:46;4.50;;;1.10;;
1613;SDS011;800;48.824;9.346;2023-05-10T10:00:17;1.60;;;0.93;;
1613;SDS011;800;48.824;9.346;2023-05-10T10:02:44;1.20;;;1.10;;
1613;SDS011;800;48.824;9.346;2023-05-10T10:05:18;1.13;;;0.90;;
1613;SDS011;800;48.824;9.346;2023-05-10T10:07:44;2.33;;;1.27;;
1613;SDS011;800;48.824;9.346;2023-05-10T10:10:10;1.20;;;1.10;;
1613;SDS011;800;48.824;9.346;2023-05-10T10:12:37;1.30;;;1.17;;
1613;SDS011;800;48.824;9.346;2023-05-10T10:15:05;1.10;;;1.00;;
1613;SDS011;800;48.824;9.346;2023-05-10T10:17:32;2.20;;;1.00;;
1613;SDS011;800;48.824;9.346;2023-05-10T10:19:59;1.00;;;1.00;;
1613;SDS011;800;48.824;9.346;2023-05-10T10:22:27;1.40;;;1.23;;
1613;SDS011;800;48.824;9.346;2023-05-10T10:24:52;1.03;;;1.00;;
1613;SDS011;800;48.824;9.346;2023-05-10T10:27:21;1.30;;;0.90;;
1613;SDS011;800;48.824;9.346;2023-05-10T10:35:52;1.70;;;1.03;;
1613;SDS011;800;48.824;9.346;2023-05-10T10:38:18;1.50;;;1.40;;
1613;SDS011;800;48.824;9.346;2023-05-10T10:40:43;2.73;;;1.80;;
1613;SDS011;800;48.824;9.346;2023-05-10T10:43:25;1.60;;;1.50;;
1613;SDS011;800;48.824;9.346;2023-05-10T10:48:39;2.90;;;1.67;;
1613;SDS011;800;48.824;9.346;2023-05-10T10:51:06;1.83;;;1.60;;
1613;SDS011;800;48.824;9.346;2023-05-10T10:53:32;2.37;;;1.70;;
1613;SDS011;800;48.824;9.346;2023-05-10T10:56:08;4.67;;;1.70;;
1613;SDS011;800;48.824;9.346;2023-05-10T10:58:35;3.43;;;1.80;;
1613;SDS011;800;48.824;9.346;2023-05-10T11:01:12;1.93;;;1.30;;
1613;SDS011;800;48.824;9.346;2023-05-10T11:06:29;2.77;;;1.30;;
1613;SDS011;800;48.824;9.346;2023-05-10T11:08:59;1.20;;;1.10;;
1613;SDS011;800;48.824;9.346;2023-05-10T11:11:30;1.93;;;1.40;;
1613;SDS011;800;48.824;9.346;2023-05-10T11:13:56;1.13;;;1.03;;
1613;SDS011;800;48.824;9.346;2023-05-10T11:16:28;0.87;;;0.87;;
1613;SDS011;800;48.824;9.346;2023-05-10T11:19:09;2.33;;;1.07;;
1613;SDS011;800;48.824;9.346;2023-05-10T11:24:13;4.20;;;0.90;;
1613;SDS011;800;48.824;9.346;2023-05-10T11:26:40;1.13;;;0.93;;
1613;SDS011;800;48.824;9.346;2023-05-10T11:29:06;3.23;;;1.20;;
1613;SDS011;800;48.824;9.346;2023-05-10T11:31:32;2.63;;;1.40;;
1613;SDS011;800;48.824;9.346;2023-05-10T11:33:58;2.10;;;1.50;;
1613;SDS011;800;48.824;9.346;2023-05-10T11:36:27;1.23;;;1.10;;
1613;SDS011;800;48.824;9.346;2023-05-10T11:38:55;2.63;;;1.50;;
1613;SDS011;800;48.824;9.346;2023-05-10T11:41:21;3.43;;;1.87;;
1613;SDS011;800;48.824;9.346;2023-05-10T11:43:51;1.90;;;1.43;;
1613;SDS011;800;48.824;9.346;2023-05-10T11:46:24;1.93;;;1.60;;
1613;SDS011;800;48.824;9.346;2023-05-10T11:48:52;2.10;;;1.33;;
1613;SDS011;800;48.824;9.346;2023-05-10T11:51:20;4.33;;;1.97;;
1613;SDS011;800;48.824;9.346;2023-05-10T11:53:47;1.30;;;1.20;;
1613;SDS011;800;48.824;9.346;2023-05-10T11:56:21;1.60;;;1.50;;
1613;SDS011;800;48.824;9.346;2023-05-10T11:58:55;2.10;;;1.00;;
1613;SDS011;800;48.824;9.346;2023-05-10T12:01:22;3.60;;;1.63;;
1613;SDS011;800;48.824;9.346;2023-05-10T12:03:50;1.33;;;1.10;;
1613;SDS011;800;48.824;9.346;2023-05-10T12:06:17;2.13;;;1.73;;
1613;SDS011;800;48.824;9.346;2023-05-10T12:08:45;0.87;;;0.77;;
1613;SDS011;800;48.824;9.346;2023-05-10T12:11:12;1.47;;;1.00;;
1613;SDS011;800;48.824;9.346;2023-05-10T12:13:41;1.60;;;1.50;;
1613;SDS011;800;48.824;9.346;2023-05-10T12:16:18;2.30;;;1.40;;
1613;SDS011;800;48.824;9.346;2023-05-10T12:18:47;1.17;;;1.00;;
1613;SDS011;800;48.824;9.346;2023-05-10T12:21:14;1.63;;;1.10;;
1613;SDS011;800;48.824;9.346;2023-05-10T12:23:40;1.30;;;1.20;;
1613;SDS011;800;48.824;9.346;2023-05-10T12:26:08;1.47;;;1.10;;
1613;SDS011;800;48.824;9.346;2023-05-10T12:28:35;2.07;;;1.40;;
1613;SDS011;800;48.824;9.346;2023-05-10T12:31:01;1.63;;;1.03;;
1613;SDS011;800;48.824;9.346;2023-05-10T12:33:27;1.50;;;1.13;;
1613;SDS011;800;48.824;9.346;2023-05-10T12:36:10;1.37;;;1.27;;
1613;SDS011;800;48.824;9.346;2023-05-10T12:38:38;2.37;;;1.30;;
1613;SDS011;800;48.824;9.346;2023-05-10T12:41:07;2.07;;;1.30;;
1613;SDS011;800;48.824;9.346;2023-05-10T12:43:37;1.53;;;1.10;;
1613;SDS011;800;48.824;9.346;2023-05-10T12:46:14;4.30;;;1.17;;
1613;SDS011;800;48.824;9.346;2023-05-10T12:48:41;3.97;;;1.13;;
1613;SDS011;800;48.824;9.346;2023-05-10T12:51:08;3.57;;;1.10;;
1613;SDS011;800;48.824;9.346;2023-05-10T12:53:36;1.40;;;1.20;;
1613;SDS011;800;48.824;9.346;2023-05-10T12:56:03;2.40;;;1.17;;
1613;SDS011;800;48.824;9.346;2023-05-10T12:58:28;2.50;;;1.10;;
1613;SDS011;800;48.824;9.346;2023-05-10T13:00:54;3.50;;;1.30;;
1613;SDS011;800;48.824;9.346;2023-05-10T13:03:21;1.17;;;1.07;;
1613;SDS011;800;48.824;9.346;2023-05-10T13:05:47;2.30;;;1.10;;
1613;SDS011;800;48.824;9.346;2023-05-10T13:08:13;3.00;;;1.17;;
1613;SDS011;800;48.824;9.346;2023-05-10T13:10:39;1.93;;;0.90;;
1613;SDS011;800;48.824;9.346;2023-05-10T13:13:05;3.50;;;1.20;;
1613;SDS011;800;48.824;9.346;2023-05-10T13:15:30;2.43;;;1.23;;
1613;SDS011;800;48.824;9.346;2023-05-10T13:17:56;3.13;;;1.00;;
1613;SDS011;800;48.824;9.346;2023-05-10T13:20:21;2.47;;;0.90;;
1613;SDS011;800;48.824;9.346;2023-05-10T13:22:47;1.10;;;0.90;;
1613;SDS011;800;48.824;9.346;2023-05-10T13:25:13;4.33;;;1.20;;
1613;SDS011;800;48.824;9.346;2023-05-10T13:27:39;1.87;;;1.13;;
1613;SDS011;800;48.824;9.346;2023-05-10T13:30:05;0.83;;;0.80;;
1613;SDS011;800;48.824;9.346;2023-05-10T13:32:32;1.40;;;1.30;;
1613;SDS011;800;48.824;9.346;2023-05-10T13:34:58;1.70;;;1.10;;
1613;SDS011;800;48.824;9.346;2023-05-10T13:37:24;3.77;;;0.90;;
1613;SDS011;800;48.824;9.346;2023-05-10T13:39:50;1.20;;;1.10;;
1613;SDS011;800;48.824;9.346;2023-05-10T13:42:17;1.77;;;1.20;;
1613;SDS011;800;48.824;9.346;2023-05-10T13:44:43;3.73;;;1.03;;
1613;SDS011;800;48.824;9.346;2023-05-10T13:47:08;1.60;;;1.10;;
1613;SDS011;800;48.824;9.346;2023-05-10T13:49:35;2.10;;;1.17;;
1613;SDS011;800;48.824;9.346;2023-05-10T13:52:00;3.60;;;1.13;;
1613;SDS011;800;48.824;9.346;2023-05-10T13:54:31;1.33;;;1.03;;
1613;SDS011;800;48.824;9.346;2023-05-10T13:57:00;1.30;;;1.20;;
1613;SDS011;800;48.824;9.346;2023-05-10T13:59:28;1.63;;;1.43;;
1613;SDS011;800;48.824;9.346;2023-05-10T14:01:54;2.20;;;1.80;;
1613;SDS011;800;48.824;9.346;2023-05-10T14:04:19;3.17;;;1.60;;
1613;SDS011;800;48.824;9.346;2023-05-10T14:06:45;9.07;;;4.83;;
1613;SDS011;800;48.824;9.346;2023-05-10T14:09:11;5.40;;;4.30;;
1613;SDS011;800;48.824;9.346;2023-05-10T14:11:36;4.93;;;2.23;;
1613;SDS011;800;48.824;9.346;2023-05-10T14:14:06;1.50;;;1.27;;
1613;SDS011;800;48.824;9.346;2023-05-10T14:16:32;1.87;;;1.60;;
1613;SDS011;800;48.824;9.346;2023-05-10T14:18:58;2.10;;;1.57;;
1613;SDS011;800;48.824;9.346;2023-05-10T14:21:23;1.93;;;1.40;;
1613;SDS011;800;48.824;9.346;2023-05-10T14:23:49;3.20;;;2.57;;
1613;SDS011;800;48.824;9.346;2023-05-10T14:26:14;1.90;;;1.80;;
1613;SDS011;800;48.824;9.346;2023-05-10T14:28:40;3.03;;;2.30;;
1613;SDS011;800;48.824;9.346;2023-05-10T14:31:06;1.43;;;1.20;;
1613;SDS011;800;48.824;9.346;2023-05-10T14:33:31;1.10;;;1.00;;
1613;SDS011;800;48.824;9.346;2023-05-10T14:35:57;1.30;;;1.10;;
1613;SDS011;800;48.824;9.346;2023-05-10T14:38:22;2.00;;;1.00;;
1613;SDS011;800;48.824;9.346;2023-05-10T14:40:48;2.73;;;0.80;;
1613;SDS011;800;48.824;9.346;2023-05-10T14:43:14;2.03;;;1.93;;
1613;SDS011;800;48.824;9.346;2023-05-10T14:45:40;3.23;;;1.40;;
1613;SDS011;800;48.824;9.346;2023-05-10T14:48:06;1.13;;;1.03;;
1613;SDS011;800;48.824;9.346;2023-05-10T14:50:36;1.47;;;1.17;;
1613;SDS011;800;48.824;9.346;2023-05-10T14:53:01;4.53;;;1.20;;
1613;SDS011;800;48.824;9.346;2023-05-10T14:55:27;2.10;;;0.73;;
1613;SDS011;800;48.824;9.346;2023-05-10T14:57:52;2.53;;;1.17;;
1613;SDS011;800;48.824;9.346;2023-05-10T15:00:19;1.63;;;0.90;;
1613;SDS011;800;48.824;9.346;2023-05-10T15:02:45;7.10;;;1.60;;
1613;SDS011;800;48.824;9.346;2023-05-10T15:05:10;2.20;;;1.03;;
1613;SDS011;800;48.824;9.346;2023-05-10T15:07:36;2.17;;;1.30;;
1613;SDS011;800;48.824;9.346;2023-05-10T15:10:02;4.20;;;1.20;;
1613;SDS011;800;48.824;9.346;2023-05-10T15:12:28;1.40;;;1.23;;
1613;SDS011;800;48.824;9.346;2023-05-10T15:14:53;1.27;;;1.00;;
1613;SDS011;800;48.824;9.346;2023-05-10T15:17:19;2.47;;;1.00;;
1613;SDS011;800;48.824;9.346;2023-05-10T15:19:44;1.00;;;0.90;;
1613;SDS011;800;48.824;9.346;2023-05-10T15:22:10;1.20;;;0.80;;
1613;SDS011;800;48.824;9.346;2023-05-10T15:24:36;1.40;;;1.13;;
1613;SDS011;800;48.824;9.346;2023-05-10T15:27:01;2.80;;;1.00;;
1613;SDS011;800;48.824;9.346;2023-05-10T15:29:28;2.13;;;1.13;;
1613;SDS011;800;48.824;9.346;2023-05-10T15:31:54;1.90;;;0.97;;
1613;SDS011;800;48.824;9.346;2023-05-10T15:34:20;2.30;;;0.90;;
1613;SDS011;800;48.824;9.346;2023-05-10T15:36:45;2.10;;;1.10;;
1613;SDS011;800;48.824;9.346;2023-05-10T15:39:11;3.27;;;1.00;;
1613;SDS011;800;48.824;9.346;2023-05-10T15:41:37;1.13;;;1.00;;
1613;SDS011;800;48.824;9.346;2023-05-10T15:44:02;0.97;;;0.97;;
1613;SDS011;800;48.824;9.346;2023-05-10T15:46:28;1.37;;;1.07;;
1613;SDS011;800;48.824;9.346;2023-05-10T15:48:54;1.50;;;0.93;;
1613;SDS011;800;48.824;9.346;2023-05-10T15:51:19;1.07;;;0.93;;
1613;SDS011;800;48.824;9.346;2023-05-10T15:53:45;3.30;;;0.90;;
1613;SDS011;800;48.824;9.346;2023-05-10T15:56:11;1.30;;;1.00;;
1613;SDS011;800;48.824;9.346;2023-05-10T15:58:37;2.17;;;1.00;;
1613;SDS011;800;48.824;9.346;2023-05-10T16:01:03;2.60;;;1.00;;